Terminal Aerodrome Forecast
Issued by NWS Corpus Christi, TX

Home | Current Version | Previous Version | Text Only | Print | Product List | Glossary On
Versions: 1 2 3 4 5 6 7 8 9 10 11 12 13 14 15 16 17 18 19 20 21 22
000
FTUS44 KCRP 232333
TAFCRP
TAF
KCRP 232333Z 2400/2424 12006KT P6SM VCTS BKN035CB
      TEMPO 2401/2403 VRB20G40KT 2SM -TSRA OVC035CB
     FM240400 36015G22KT P6SM BKN035
     FM240900 36012KT P6SM BKN050
     FM241200 36008KT P6SM SCT250=

USA.gov is the U.S. government's official web portal to all federal, state and local government web resources and services.